< < Back
Terminal Aerodrome Forecast


Current Version              Previous Versions:   1  2  3  4  5  6  7  8  9  

Terminal Aerodrome Forecast

997
FTUS42 KTAE 271738
TAFDHN
TAF
KDHN 271738Z 2718/2818 12005KT P6SM VCTS SCT015 BKN025CB
      TEMPO 2721/2724 VRB10G20KT 3SM TSRA BKN025CB
     FM280400 10003KT P6SM SCT015 BKN040
      TEMPO 2811/2814 5SM BR BKN015=

Latest METAR

570
SAUS70 KWBC 281600 RRG
MTRDHN
METAR KDHN 281553Z 09006KT 10SM FEW012 SCT075 27/22 A3021 RMK AO2 SLP223
T02720217


USA.gov is the U.S. government's official web portal to all federal, state and local government web resources and services.